| time (UTC) | temp F | wind direction | speed MPH | gust MPH | rain 1hr in | rain 24hr in | rain mn in | humidity % | barometer mb |
| 20260509234511 | 57 | 58 | 2.0 | 5.0 | 0.00 | 0.25 | 0.25 | 80 | 1010.0 |
| 20260509233014 | 58 | 68 | 2.0 | 5.0 | 0.00 | 0.25 | 0.25 | 78 | 1009.9 |
| 20260509231527 | 59 | 94 | 2.0 | 4.0 | 0.00 | 0.25 | 0.25 | 77 | 1009.8 |
| 20260509230024 | 59 | 101 | 2.0 | 5.0 | 0.00 | 0.25 | 0.25 | 76 | 1009.9 |
| 20260509224506 | 59 | 67 | 3.0 | 6.0 | 0.00 | 0.26 | 0.25 | 76 | 1009.8 |
| 20260509223011 | 59 | 69 | 3.0 | 6.0 | 0.00 | 0.26 | 0.25 | 76 | 1009.9 |
| 20260509221514 | 59 | 59 | 4.0 | 7.0 | 0.00 | 0.26 | 0.25 | 77 | 1010.0 |
| 20260509220019 | 59 | 72 | 2.0 | 3.0 | 0.00 | 0.26 | 0.25 | 77 | 1010.1 |
| 20260509214527 | 58 | 76 | 3.0 | 6.0 | 0.00 | 0.26 | 0.25 | 79 | 1010.2 |
| 20260509213007 | 57 | 103 | 0.0 | 3.0 | 0.00 | 0.26 | 0.25 | 86 | 1010.2 |
| 20260509211528 | 55 | 84 | 0.0 | 4.0 | 0.00 | 0.26 | 0.25 | 85 | 1010.3 |
| 20260509210019 | 54 | 104 | 2.0 | 3.0 | 0.00 | 0.26 | 0.25 | 87 | 1010.3 |
| 20260509204521 | 54 | 74 | 1.0 | 2.0 | 0.00 | 0.26 | 0.25 | 86 | 1010.4 |
| 20260509203029 | 54 | 67 | 1.0 | 2.0 | 0.01 | 0.26 | 0.25 | 87 | 1010.4 |
| 20260509201526 | 54 | 94 | 2.0 | 5.0 | 0.01 | 0.26 | 0.25 | 86 | 1010.6 |
| 20260509200026 | 54 | 84 | 4.0 | 9.0 | 0.02 | 0.26 | 0.25 | 86 | 1010.8 |
| 20260509194504 | 54 | 53 | 7.0 | 10.0 | 0.02 | 0.26 | 0.25 | 87 | 1010.7 |
| 20260509193004 | 54 | 79 | 4.0 | 7.0 | 0.01 | 0.25 | 0.24 | 87 | 1011.1 |
| 20260509191506 | 53 | 73 | 5.0 | 8.0 | 0.02 | 0.25 | 0.24 | 87 | 1011.2 |
| 20260509190014 | 53 | 65 | 4.0 | 7.0 | 0.02 | 0.24 | 0.23 | 87 | 1011.3 |
| 20260509184515 | 53 | 51 | 7.0 | 10.0 | 0.04 | 0.24 | 0.23 | 88 | 1011.4 |
| 20260509183004 | 52 | 51 | 4.0 | 7.0 | 0.06 | 0.24 | 0.23 | 89 | 1011.4 |
| 20260509181504 | 52 | 94 | 3.0 | 7.0 | 0.07 | 0.23 | 0.22 | 89 | 1011.8 |
| 20260509180008 | 52 | 71 | 3.0 | 12.0 | 0.10 | 0.22 | 0.21 | 89 | 1011.8 |
| 20260509174514 | 52 | 79 | 6.0 | 8.0 | 0.09 | 0.20 | 0.19 | 89 | 1012.0 |
| 20260509173020 | 52 | 87 | 4.0 | 7.0 | 0.08 | 0.18 | 0.17 | 88 | 1011.7 |
| 20260509171503 | 51 | 89 | 0.0 | 4.0 | 0.08 | 0.16 | 0.15 | 88 | 1012.0 |
| 20260509170004 | 51 | 90 | 4.0 | 5.0 | 0.07 | 0.12 | 0.11 | 87 | 1012.2 |
| 20260509164510 | 51 | 46 | 3.0 | 9.0 | 0.07 | 0.11 | 0.10 | 88 | 1011.9 |
| 20260509163031 | 51 | 16 | 4.0 | 8.0 | 0.07 | 0.10 | 0.09 | 88 | 1011.9 |
| 20260509161534 | 52 | 25 | 5.0 | 8.0 | 0.06 | 0.08 | 0.07 | 88 | 1012.1 |
| 20260509160016 | 52 | 23 | 5.0 | 12.0 | 0.03 | 0.05 | 0.04 | 86 | 1012.3 |
| 20260509154504 | 53 | 41 | 3.0 | 7.0 | 0.02 | 0.04 | 0.03 | 85 | 1012.4 |
| 20260509153011 | 53 | 75 | 5.0 | 10.0 | 0.02 | 0.03 | 0.02 | 83 | 1012.3 |
| 20260509151526 | 53 | 68 | 7.0 | 13.0 | 0.01 | 0.02 | 0.01 | 82 | 1012.2 |
| 20260509150020 | 53 | 69 | 1.0 | 5.0 | 0.01 | 0.02 | 0.01 | 79 | 1012.1 |
| 20260509144523 | 53 | 61 | 3.0 | 6.0 | 0.01 | 0.02 | 0.01 | 80 | 1012.3 |
| 20260509143008 | 53 | 44 | 5.0 | 9.0 | 0.00 | 0.01 | 0.00 | 80 | 1012.3 |
| 20260509141519 | 52 | 341 | 2.0 | 5.0 | 0.00 | 0.01 | 0.00 | 84 | 1012.2 |
| 20260509140016 | 52 | 70 | 1.0 | 2.0 | 0.00 | 0.01 | 0.00 | 80 | 1011.8 |
| 20260509134529 | 52 | 117 | 1.0 | 2.0 | 0.00 | 0.01 | 0.00 | 80 | 1011.8 |
| 20260509133024 | 52 | 14 | 2.0 | 6.0 | 0.00 | 0.01 | 0.00 | 80 | 1012.1 |
| 20260509131517 | 53 | 58 | 3.0 | 8.0 | 0.00 | 0.01 | 0.00 | 76 | 1012.3 |
| 20260509130013 | 53 | 68 | 1.0 | 4.0 | 0.00 | 0.01 | 0.00 | 76 | 1011.9 |
| 20260509124518 | 53 | 86 | 1.0 | 8.0 | 0.00 | 0.01 | 0.00 | 73 | 1011.7 |
| 20260509123021 | 53 | 81 | 5.0 | 8.0 | 0.00 | 0.01 | 0.00 | 71 | 1011.6 |
| 20260509121532 | 53 | 225 | 3.0 | 9.0 | 0.00 | 0.01 | 0.00 | 72 | 1011.6 |
| 20260509120012 | 53 | 191 | 5.0 | 8.0 | 0.00 | 0.01 | 0.00 | 74 | 1011.4 |
| 20260509114515 | 53 | 127 | 2.0 | 8.0 | 0.00 | 0.01 | 0.00 | 74 | 1011.4 |
| 20260509113018 | 53 | 155 | 1.0 | 7.0 | 0.00 | 0.01 | 0.00 | 73 | 1011.3 |
| 20260509111522 | 53 | 79 | 1.0 | 3.0 | 0.00 | 0.01 | 0.00 | 72 | 1011.4 |
| 20260509110006 | 53 | 153 | 2.0 | 5.0 | 0.00 | 0.01 | 0.00 | 71 | 1011.3 |
| 20260509104528 | 53 | 238 | 2.0 | 5.0 | 0.00 | 0.01 | 0.00 | 71 | 1011.4 |
| 20260509103016 | 53 | 61 | 1.0 | 8.0 | 0.00 | 0.01 | 0.00 | 69 | 1011.6 |
| 20260509101523 | 53 | 139 | 7.0 | 9.0 | 0.00 | 0.01 | 0.00 | 68 | 1011.3 |
| 20260509100031 | 53 | 183 | 4.0 | 8.0 | 0.00 | 0.01 | 0.00 | 68 | 1011.2 |
| 20260509094517 | 53 | 136 | 8.0 | 13.0 | 0.00 | 0.01 | 0.00 | 69 | 1011.2 |
| 20260509093012 | 51 | 194 | 6.0 | 9.0 | 0.00 | 0.01 | 0.00 | 75 | 1011.2 |
| 20260509091519 | 51 | 258 | 1.0 | 5.0 | 0.00 | 0.01 | 0.00 | 75 | 1011.2 |
| 20260509090024 | 50 | 149 | 2.0 | 5.0 | 0.00 | 0.01 | 0.00 | 78 | 1011.3 |
| 20260509084530 | 50 | 148 | 3.0 | 7.0 | 0.00 | 0.01 | 0.00 | 78 | 1011.5 |
| 20260509083016 | 48 | 166 | 4.0 | 5.0 | 0.00 | 0.01 | 0.00 | 86 | 1011.6 |
| 20260509081522 | 46 | 136 | 2.0 | 4.0 | 0.00 | 0.01 | 0.00 | 89 | 1011.9 |
| 20260509080022 | 45 | 162 | 1.0 | 3.0 | 0.00 | 0.01 | 0.00 | 90 | 1012.0 |
| 20260509074524 | 45 | 188 | 2.0 | 3.0 | 0.00 | 0.01 | 0.00 | 90 | 1012.5 |
| 20260509073026 | 45 | 193 | 2.0 | 3.0 | 0.00 | 0.01 | 0.00 | 90 | 1012.4 |
| 20260509071518 | 45 | 194 | 2.0 | 3.0 | 0.00 | 0.01 | 0.00 | 89 | 1012.4 |
| 20260509070018 | 46 | 206 | 2.0 | 3.0 | 0.00 | 0.01 | 0.00 | 90 | 1012.5 |
| 20260509064523 | 46 | 143 | 1.0 | 2.0 | 0.00 | 0.01 | 0.00 | 89 | 1012.7 |
| 20260509063024 | 47 | 140 | 0.0 | 1.0 | 0.00 | 0.01 | 0.00 | 88 | 1012.7 |
| 20260509061525 | 48 | 140 | 0.0 | 2.0 | 0.00 | 0.01 | 0.00 | 88 | 1012.7 |
| 20260509060014 | 48 | 201 | 2.0 | 3.0 | 0.00 | 0.01 | 0.00 | 88 | 1012.6 |
| 20260509054523 | 49 | 130 | 1.0 | 1.0 | 0.00 | 0.01 | 0.00 | 87 | 1013.1 |
| 20260509053029 | 49 | 130 | 1.0 | 2.0 | 0.00 | 0.01 | 0.00 | 86 | 1013.1 |
| 20260509051532 | 48 | 144 | 2.0 | 4.0 | 0.00 | 0.01 | 0.00 | 88 | 1013.1 |
| 20260509050017 | 48 | 160 | 2.0 | 3.0 | 0.00 | 0.01 | 0.00 | 87 | 1013.0 |
| 20260509044516 | 48 | 124 | 0.0 | 4.0 | 0.00 | 0.01 | 0.00 | 87 | 1013.5 |
| 20260509043021 | 48 | 169 | 0.0 | 3.0 | 0.00 | 0.01 | 0.00 | 88 | 1013.3 |
| 20260509041504 | 48 | 148 | 2.0 | 3.0 | 0.00 | 0.01 | 0.00 | 88 | 1013.5 |
| 20260509040008 | 49 | 148 | 1.0 | 4.0 | 0.00 | 0.02 | 0.00 | 86 | 1013.2 |
| 20260509034514 | 48 | 100 | 2.0 | 3.0 | 0.00 | 0.02 | 0.02 | 87 | 1013.0 |
| 20260509033015 | 48 | 172 | 1.0 | 4.0 | 0.00 | 0.02 | 0.02 | 87 | 1012.8 |
| 20260509031524 | 47 | 159 | 1.0 | 3.0 | 0.00 | 0.02 | 0.02 | 88 | 1013.3 |
| 20260509030003 | 47 | 133 | 1.0 | 1.0 | 0.00 | 0.02 | 0.02 | 87 | 1013.4 |
| 20260509024508 | 47 | 205 | 2.0 | 4.0 | 0.00 | 0.03 | 0.02 | 87 | 1013.2 |
| 20260509023016 | 46 | 156 | 1.0 | 3.0 | 0.00 | 0.03 | 0.02 | 89 | 1013.3 |
| 20260509021528 | 46 | 155 | 1.0 | 3.0 | 0.00 | 0.03 | 0.02 | 88 | 1013.4 |
| 20260509020026 | 46 | 147 | 2.0 | 2.0 | 0.00 | 0.03 | 0.02 | 89 | 1013.4 |
| 20260509014504 | 46 | 191 | 2.0 | 4.0 | 0.00 | 0.03 | 0.02 | 89 | 1013.4 |
| 20260509013026 | 46 | 158 | 0.0 | 3.0 | 0.00 | 0.03 | 0.02 | 89 | 1013.3 |
| 20260509011512 | 46 | 150 | 1.0 | 2.0 | 0.00 | 0.03 | 0.02 | 88 | 1013.2 |
| 20260509010017 | 48 | 139 | 0.0 | 1.0 | 0.00 | 0.03 | 0.02 | 87 | 1013.0 |
| 20260509004525 | 49 | 133 | 1.0 | 1.0 | 0.00 | 0.03 | 0.02 | 86 | 1012.9 |
| 20260509003024 | 50 | 141 | 0.0 | 2.0 | 0.00 | 0.03 | 0.02 | 85 | 1012.9 |
| 20260509001509 | 50 | 180 | 1.0 | 2.0 | 0.00 | 0.03 | 0.02 | 84 | 1012.8 |
| 20260509000030 | 51 | 130 | 0.0 | 1.0 | 0.00 | 0.03 | 0.02 | 82 | 1012.7 |